Time;durP1;ratioP1;P1;durP2;ratioP2;P2;SDS_P1;SDS_P2;PMS_P1;PMS_P2;Temp;Humidity;BMP_temperature;BMP_pressure;BME280_temperature;BME280_humidity;BME280_pressure;Samples;Min_cycle;Max_cycle;Signal;HPM_P1;HPM_P2
2023/12/23 00:01:59;;;;;;;0.40;0.40;;;;;;;1.08;100.00;98892.81;5002061;28;20226;-75
2023/12/23 00:04:26;;;;;;;0.30;0.30;;;;;;;1.08;100.00;98898.78;4997864;28;20231;-76
2023/12/23 00:06:52;;;;;;;0.30;0.30;;;;;;;1.10;100.00;98890.69;5002130;28;20569;-75
2023/12/23 00:09:18;;;;;;;3.90;0.40;;;;;;;1.13;100.00;98903.84;5000349;28;20213;-76
2023/12/23 00:11:45;;;;;;;0.30;0.30;;;;;;;1.17;100.00;98909.19;5003027;28;20228;-76
2023/12/23 00:14:11;;;;;;;0.43;0.40;;;;;;;1.18;100.00;98926.31;5004732;28;20212;-74
2023/12/23 00:16:39;;;;;;;2.57;0.50;;;;;;;1.21;100.00;98931.66;4994821;28;20211;-76
2023/12/23 00:19:06;;;;;;;0.30;0.30;;;;;;;1.22;100.00;98920.22;5003606;28;20224;-75
2023/12/23 00:21:32;;;;;;;0.40;0.40;;;;;;;1.22;100.00;98946.22;4998742;28;20371;-76
2023/12/23 00:23:58;;;;;;;0.57;0.40;;;;;;;1.22;100.00;98954.00;4999826;28;20204;-76
2023/12/23 00:26:25;;;;;;;0.40;0.40;;;;;;;1.22;100.00;98943.63;5008672;28;20252;-76
2023/12/23 00:28:51;;;;;;;0.40;0.40;;;;;;;1.22;100.00;98932.44;5007157;28;20581;-76
2023/12/23 00:31:18;;;;;;;2.63;0.50;;;;;;;1.26;100.00;98946.38;5019617;28;20203;-75
2023/12/23 00:33:48;;;;;;;0.50;0.50;;;;;;;1.27;100.00;98950.50;5001976;28;20201;-75
2023/12/23 00:36:14;;;;;;;0.60;0.60;;;;;;;1.33;100.00;98964.88;5004421;28;20863;-76
2023/12/23 00:38:40;;;;;;;1.47;1.03;;;;;;;1.35;100.00;98983.56;5005314;28;20209;-75
2023/12/23 00:41:07;;;;;;;4.87;0.93;;;;;;;1.39;100.00;98985.25;5005499;28;20491;-76
2023/12/23 00:43:33;;;;;;;2.83;0.80;;;;;;;1.40;100.00;98981.56;5006277;28;20201;-75
2023/12/23 00:45:59;;;;;;;4.30;1.17;;;;;;;1.45;100.00;99006.66;5005814;28;20205;-76
2023/12/23 00:48:26;;;;;;;0.80;0.57;;;;;;;1.46;100.00;99014.16;5007492;28;20308;-76
2023/12/23 00:50:54;;;;;;;1.17;0.60;;;;;;;1.51;100.00;99005.47;5002732;28;20212;-75
2023/12/23 00:53:25;;;;;;;4.40;0.70;;;;;;;1.51;100.00;99015.84;5001628;28;20204;-75
2023/12/23 00:55:51;;;;;;;1.93;0.73;;;;;;;1.51;100.00;99021.81;5002274;28;20713;-75
2023/12/23 00:58:18;;;;;;;1.43;0.60;;;;;;;1.51;100.00;99014.00;5001446;28;20647;-75
2023/12/23 01:00:44;;;;;;;2.17;0.70;;;;;;;1.50;100.00;99004.69;5004710;28;20224;-75
2023/12/23 01:03:11;;;;;;;2.60;1.07;;;;;;;1.49;100.00;99008.34;5003320;28;20638;-75
2023/12/23 01:05:37;;;;;;;4.90;1.40;;;;;;;1.46;100.00;99013.41;5006759;28;20237;-76
2023/12/23 01:08:05;;;;;;;1.50;0.77;;;;;;;1.47;100.00;99033.13;4999618;28;20209;-76
2023/12/23 01:10:31;;;;;;;1.40;0.77;;;;;;;1.49;100.00;99033.59;4998677;28;20216;-75
2023/12/23 01:12:58;;;;;;;1.63;0.70;;;;;;;1.50;100.00;99030.69;5005219;28;20213;-75
2023/12/23 01:15:25;;;;;;;1.00;0.70;;;;;;;1.53;100.00;99037.13;5012132;28;20216;-74
2023/12/23 01:17:52;;;;;;;1.97;0.90;;;;;;;1.52;100.00;99049.34;5002406;28;20228;-75
2023/12/23 01:20:18;;;;;;;0.43;0.43;;;;;;;1.55;100.00;99053.19;5000538;28;20214;-75
2023/12/23 01:22:45;;;;;;;1.90;0.50;;;;;;;1.56;100.00;99068.47;5002923;28;20572;-75
2023/12/23 01:25:12;;;;;;;0.43;0.43;;;;;;;1.56;100.00;99076.28;5004598;28;20197;-75
2023/12/23 01:27:39;;;;;;;1.53;0.50;;;;;;;1.58;100.00;99070.78;5004605;28;20603;-75
2023/12/23 01:30:07;;;;;;;0.60;0.40;;;;;;;1.58;100.00;99100.19;5002580;28;20213;-75
2023/12/23 01:32:33;;;;;;;3.00;0.57;;;;;;;1.59;100.00;99075.69;5002306;28;20756;-75
2023/12/23 01:35:00;;;;;;;3.10;0.60;;;;;;;1.57;100.00;99087.47;5008298;28;20218;-74
2023/12/23 01:37:27;;;;;;;3.30;0.80;;;;;;;1.57;100.00;99072.63;5001638;28;20572;-75
2023/12/23 01:39:55;;;;;;;1.70;0.80;;;;;;;1.58;100.00;99081.19;5005114;28;20239;-75
2023/12/23 01:42:22;;;;;;;2.27;1.47;;;;;;;1.60;100.00;99092.06;4999979;28;20209;-75
2023/12/23 01:44:49;;;;;;;5.57;1.07;;;;;;;1.62;100.00;99085.47;5003067;28;20193;-75
2023/12/23 01:47:16;;;;;;;2.47;0.97;;;;;;;1.63;100.00;99088.84;5001405;28;20209;-75
2023/12/23 01:49:43;;;;;;;5.73;1.17;;;;;;;1.62;100.00;99105.53;5004401;28;20227;-75
2023/12/23 01:52:10;;;;;;;1.37;0.70;;;;;;;1.59;100.00;99103.53;5004203;28;20200;-75
2023/12/23 01:54:37;;;;;;;3.27;0.70;;;;;;;1.58;100.00;99112.41;4999944;28;20192;-75
2023/12/23 01:57:04;;;;;;;2.20;1.00;;;;;;;1.60;100.00;99118.06;5002090;28;20212;-74
2023/12/23 01:59:32;;;;;;;1.73;0.80;;;;;;;1.59;100.00;99130.31;5002992;28;20231;-76
2023/12/23 02:02:00;;;;;;;1.47;1.00;;;;;;;1.61;100.00;99133.38;5009039;28;20208;-75
2023/12/23 02:04:26;;;;;;;4.53;1.07;;;;;;;1.62;100.00;99132.31;5001629;28;21883;-75
2023/12/23 02:06:53;;;;;;;1.73;0.90;;;;;;;1.64;100.00;99140.59;5015914;28;20201;-75
2023/12/23 02:09:19;;;;;;;2.90;0.90;;;;;;;1.64;100.00;99168.44;5008385;28;20213;-75
2023/12/23 02:11:53;;;;;;;1.57;0.80;;;;;;;1.65;100.00;99151.75;5015298;28;20216;-73
2023/12/23 02:14:28;;;;;;;3.20;1.00;;;;;;;1.62;100.00;99155.72;5009023;28;20264;-74
2023/12/23 02:16:57;;;;;;;0.90;0.70;;;;;;;1.61;100.00;99153.44;5016427;28;20518;-75
2023/12/23 02:19:23;;;;;;;2.27;0.77;;;;;;;1.62;100.00;99194.00;5018760;28;20244;-74
2023/12/23 02:21:51;;;;;;;2.17;0.77;;;;;;;1.62;100.00;99183.59;5023297;28;20236;-73
2023/12/23 02:24:17;;;;;;;2.07;0.90;;;;;;;1.60;100.00;99199.50;5024207;28;20189;-74
2023/12/23 02:26:49;;;;;;;1.87;0.80;;;;;;;1.61;100.00;99202.88;5024043;28;20208;-75
2023/12/23 02:29:19;;;;;;;1.57;0.50;;;;;;;1.63;99.46;99209.31;5011453;28;20240;-75
2023/12/23 02:31:46;;;;;;;2.20;0.70;;;;;;;1.61;98.94;99201.00;5012278;28;20603;-73
2023/12/23 02:34:13;;;;;;;1.37;0.50;;;;;;;1.60;98.51;99219.53;5018151;28;20208;-75
2023/12/23 02:36:39;;;;;;;2.00;0.70;;;;;;;1.58;98.82;99209.44;5018351;28;20204;-75
2023/12/23 02:39:07;;;;;;;2.27;0.50;;;;;;;1.60;97.23;99222.13;5017183;28;20591;-75
2023/12/23 02:41:34;;;;;;;3.83;0.97;;;;;;;1.56;98.59;99223.81;5014163;28;20211;-76
2023/12/23 02:44:00;;;;;;;2.17;0.70;;;;;;;1.55;97.11;99227.44;5011518;28;20211;-74
2023/12/23 02:46:26;;;;;;;3.67;0.73;;;;;;;1.53;97.13;99227.78;4999358;28;20208;-74
2023/12/23 02:48:53;;;;;;;4.47;0.73;;;;;;;1.52;97.76;99244.41;5002714;28;20717;-75
2023/12/23 02:51:19;;;;;;;2.60;0.83;;;;;;;1.50;98.77;99245.81;5002966;28;20669;-75
2023/12/23 02:53:45;;;;;;;2.37;0.83;;;;;;;1.52;96.61;99239.22;5000023;28;20659;-76
2023/12/23 02:56:13;;;;;;;4.27;0.80;;;;;;;1.52;96.66;99254.81;4998397;28;20441;-75
2023/12/23 02:58:39;;;;;;;1.10;0.90;;;;;;;1.53;97.65;99269.38;5004969;28;20205;-76
2023/12/23 03:01:07;;;;;;;2.30;0.80;;;;;;;1.54;98.74;99277.94;5007900;28;20213;-75
2023/12/23 03:03:33;;;;;;;4.10;0.90;;;;;;;1.59;98.29;99288.22;5006074;28;20257;-75
2023/12/23 03:05:59;;;;;;;8.37;1.03;;;;;;;1.61;99.10;99289.47;5000821;28;20444;-75
2023/12/23 03:08:26;;;;;;;2.60;0.70;;;;;;;1.65;98.25;99295.63;5004460;28;20207;-74
2023/12/23 03:10:52;;;;;;;4.63;0.60;;;;;;;1.65;98.74;99295.63;5004169;28;20704;-75
2023/12/23 03:13:20;;;;;;;2.47;0.80;;;;;;;1.65;97.71;99319.03;4997849;28;20202;-76
2023/12/23 03:15:46;;;;;;;0.90;0.50;;;;;;;1.68;96.96;99320.28;5000511;28;20287;-75
2023/12/23 03:18:13;;;;;;;2.03;0.80;;;;;;;1.67;95.33;99327.28;4997229;28;20668;-75
2023/12/23 03:20:39;;;;;;;2.87;0.80;;;;;;;1.68;93.35;99322.88;4999535;28;20216;-75
2023/12/23 03:23:05;;;;;;;0.43;0.43;;;;;;;1.66;93.72;99336.19;5003385;28;20215;-76
2023/12/23 03:25:32;;;;;;;1.43;0.70;;;;;;;1.65;93.96;99346.88;5004303;28;20208;-74
2023/12/23 03:27:58;;;;;;;2.90;0.70;;;;;;;1.60;93.52;99360.00;5014550;28;20193;-75
2023/12/23 03:30:26;;;;;;;3.00;0.60;;;;;;;1.59;92.41;99351.44;5003354;28;20216;-75
2023/12/23 03:32:54;;;;;;;2.00;0.50;;;;;;;1.57;93.32;99352.81;5001634;28;20196;-74
2023/12/23 03:35:20;;;;;;;2.50;0.70;;;;;;;1.55;92.90;99349.72;5003000;28;20205;-75
2023/12/23 03:37:47;;;;;;;5.17;0.70;;;;;;;1.50;94.12;99355.81;4997649;28;20209;-75
2023/12/23 03:40:13;;;;;;;0.40;0.40;;;;;;;1.46;93.45;99359.31;5001791;28;20217;-75
2023/12/23 03:42:40;;;;;;;0.63;0.63;;;;;;;1.43;94.07;99373.66;5002152;28;20679;-75
2023/12/23 03:45:07;;;;;;;1.30;0.63;;;;;;;1.42;94.35;99371.34;4997507;28;20194;-75
2023/12/23 03:47:35;;;;;;;3.90;0.80;;;;;;;1.42;95.82;99372.13;5017149;28;20201;-75
2023/12/23 03:50:01;;;;;;;2.70;0.77;;;;;;;1.44;96.70;99371.81;5003156;28;20221;-75
2023/12/23 03:52:28;;;;;;;6.30;1.00;;;;;;;1.44;96.74;99377.81;5014975;28;20220;-75
2023/12/23 03:54:55;;;;;;;2.07;0.70;;;;;;;1.43;96.76;99381.47;4999325;28;20559;-75
2023/12/23 03:57:21;;;;;;;3.27;0.80;;;;;;;1.46;96.81;99401.66;4999377;28;20707;-75
2023/12/23 03:59:48;;;;;;;2.83;0.90;;;;;;;1.49;96.88;99402.91;5001399;28;20228;-76
2023/12/23 04:02:14;;;;;;;3.43;0.83;;;;;;;1.46;96.76;99393.88;4998012;28;20206;-75
2023/12/23 04:04:42;;;;;;;2.27;0.90;;;;;;;1.47;96.65;99411.03;5000453;28;20201;-75
2023/12/23 04:07:08;;;;;;;4.13;1.07;;;;;;;1.51;95.54;99406.75;5003099;28;20698;-76
2023/12/23 04:09:34;;;;;;;2.60;1.00;;;;;;;1.53;94.88;99412.47;4998318;28;20220;-76
2023/12/23 04:12:01;;;;;;;4.33;0.87;;;;;;;1.53;95.37;99417.66;4997347;28;20220;-76
2023/12/23 04:14:28;;;;;;;4.00;0.87;;;;;;;1.53;94.70;99417.66;5002652;28;20205;-75
2023/12/23 04:16:54;;;;;;;2.37;0.80;;;;;;;1.55;94.36;99425.16;4996348;28;20202;-76
2023/12/23 04:19:21;;;;;;;5.67;1.20;;;;;;;1.58;93.08;99432.38;5006138;28;20607;-75
2023/12/23 04:21:48;;;;;;;2.30;0.80;;;;;;;1.57;93.28;99429.00;4999101;28;20316;-75
2023/12/23 04:24:15;;;;;;;6.33;1.07;;;;;;;1.58;94.59;99442.78;5001222;28;20239;-75
2023/12/23 04:26:41;;;;;;;3.33;1.03;;;;;;;1.60;93.16;99449.22;5003525;28;20691;-75
2023/12/23 04:29:08;;;;;;;2.17;0.70;;;;;;;1.60;93.65;99440.66;4998583;28;20224;-75
2023/12/23 04:31:34;;;;;;;7.47;1.10;;;;;;;1.58;93.80;99443.56;5001810;28;20250;-75
2023/12/23 04:34:00;;;;;;;2.37;0.77;;;;;;;1.58;92.91;99451.38;5001915;28;20200;-75
2023/12/23 04:36:27;;;;;;;3.67;0.90;;;;;;;1.60;92.74;99453.66;4998159;28;20216;-74
2023/12/23 04:38:55;;;;;;;1.70;0.77;;;;;;;1.58;93.26;99461.00;5000649;28;20216;-74
2023/12/23 04:41:21;;;;;;;4.23;1.00;;;;;;;1.56;93.34;99463.88;4995150;28;20275;-75
2023/12/23 04:43:48;;;;;;;6.20;0.87;;;;;;;1.56;92.54;99457.91;4998249;28;20195;-75
2023/12/23 04:46:14;;;;;;;3.93;0.70;;;;;;;1.54;93.78;99468.63;5002833;28;20210;-75
2023/12/23 04:48:41;;;;;;;5.20;1.17;;;;;;;1.55;92.90;99466.78;5001851;28;20208;-75
2023/12/23 04:51:08;;;;;;;1.87;0.57;;;;;;;1.57;92.79;99472.47;4999402;28;20197;-73
2023/12/23 04:53:35;;;;;;;3.80;0.93;;;;;;;1.55;91.98;99470.16;5004158;28;20203;-75
2023/12/23 04:56:02;;;;;;;3.27;1.00;;;;;;;1.54;93.06;99460.81;5001029;28;20236;-75
2023/12/23 04:58:29;;;;;;;3.67;0.90;;;;;;;1.57;91.49;99460.22;5003522;28;20296;-75
2023/12/23 05:00:55;;;;;;;3.80;0.90;;;;;;;1.59;91.31;99455.50;4995099;28;20213;-75
2023/12/23 05:03:21;;;;;;;2.63;0.80;;;;;;;1.60;90.92;99457.03;5002389;28;20216;-75
2023/12/23 05:05:50;;;;;;;3.67;0.97;;;;;;;1.60;91.01;99459.63;5001303;28;20459;-75
2023/12/23 05:08:16;;;;;;;3.13;1.03;;;;;;;1.58;92.18;99461.78;4999825;28;20672;-75
2023/12/23 05:10:43;;;;;;;3.93;1.03;;;;;;;1.64;90.70;99460.59;5000636;28;20595;-75
2023/12/23 05:13:11;;;;;;;3.57;1.00;;;;;;;1.62;90.97;99447.09;5007662;28;20695;-75
2023/12/23 05:15:37;;;;;;;6.93;1.10;;;;;;;1.64;90.95;99452.00;5008772;28;20200;-75
2023/12/23 05:18:04;;;;;;;4.07;1.13;;;;;;;1.64;91.98;99452.00;5010562;28;20200;-75
2023/12/23 05:20:30;;;;;;;5.50;0.93;;;;;;;1.62;92.59;99454.91;5002097;28;20312;-74
2023/12/23 05:22:57;;;;;;;7.13;1.40;;;;;;;1.62;91.97;99448.94;4997637;28;20229;-74
2023/12/23 05:25:23;;;;;;;5.50;1.07;;;;;;;1.60;91.76;99449.22;5003047;28;20660;-75
2023/12/23 05:27:50;;;;;;;9.23;1.20;;;;;;;1.62;91.39;99456.75;5008535;28;20284;-75
2023/12/23 05:30:17;;;;;;;5.13;1.00;;;;;;;1.61;90.92;99463.78;5001293;28;20227;-75
2023/12/23 05:32:44;;;;;;;5.30;1.43;;;;;;;1.62;90.04;99457.50;5003937;28;20665;-75
2023/12/23 05:35:10;;;;;;;7.77;1.20;;;;;;;1.63;90.31;99468.69;5003995;28;20707;-75
2023/12/23 05:37:37;;;;;;;3.70;1.30;;;;;;;1.62;91.55;99464.56;5002489;28;20204;-73
2023/12/23 05:40:05;;;;;;;2.73;1.27;;;;;;;1.63;91.10;99460.88;5002792;28;20217;-75
2023/12/23 05:42:31;;;;;;;3.93;1.00;;;;;;;1.62;90.45;99465.31;5001141;28;20668;-74
2023/12/23 05:44:58;;;;;;;6.73;1.23;;;;;;;1.63;90.87;99468.69;5002298;28;20298;-75
2023/12/23 05:47:25;;;;;;;4.23;0.70;;;;;;;1.65;91.03;99466.56;5003980;28;20667;-75
2023/12/23 05:49:52;;;;;;;3.23;1.10;;;;;;;1.67;91.25;99464.44;5009360;28;20231;-75
2023/12/23 05:52:18;;;;;;;3.40;0.90;;;;;;;1.69;91.72;99451.91;5004687;28;20190;-75
2023/12/23 05:54:44;;;;;;;2.03;1.00;;;;;;;1.68;92.44;99447.75;4997910;28;20569;-75
2023/12/23 05:57:11;;;;;;;4.90;1.00;;;;;;;1.69;91.83;99441.50;4999330;28;20583;-75
2023/12/23 05:59:37;;;;;;;6.37;1.33;;;;;;;1.69;92.59;99442.28;5003983;28;20588;-75
2023/12/23 06:02:04;;;;;;;5.43;1.03;;;;;;;1.71;91.95;99444.59;5003971;28;20715;-74
2023/12/23 06:04:32;;;;;;;9.10;1.53;;;;;;;1.70;93.03;99437.81;5001361;28;20201;-75
2023/12/23 06:06:59;;;;;;;5.50;1.40;;;;;;;1.71;92.19;99434.94;4998475;28;20200;-75
2023/12/23 06:09:25;;;;;;;14.60;1.40;;;;;;;1.70;93.99;99428.19;5001955;28;20218;-73
2023/12/23 06:11:52;;;;;;;7.07;1.57;;;;;;;1.71;93.59;99431.56;4999162;28;20189;-75
2023/12/23 06:14:18;;;;;;;6.53;1.20;;;;;;;1.70;93.86;99428.19;5003034;28;20221;-75
2023/12/23 06:16:44;;;;;;;6.40;1.40;;;;;;;1.71;93.95;99423.78;4999386;28;20284;-77
2023/12/23 06:19:10;;;;;;;8.47;1.77;;;;;;;1.72;93.70;99430.50;5008302;28;20598;-75
2023/12/23 06:21:45;;;;;;;8.80;1.63;;;;;;;1.71;93.78;99419.31;5000731;28;20217;-75
2023/12/23 06:24:11;;;;;;;7.53;1.80;;;;;;;1.73;94.22;99426.84;5002334;28;20193;-75
2023/12/23 06:26:38;;;;;;;4.37;1.20;;;;;;;1.75;93.76;99414.28;5002427;28;20212;-73
2023/12/23 06:29:04;;;;;;;3.73;1.30;;;;;;;1.78;94.17;99418.91;4997368;28;20221;-73
2023/12/23 06:31:31;;;;;;;8.17;1.43;;;;;;;1.79;94.13;99413.41;5000795;28;20197;-74
2023/12/23 06:33:57;;;;;;;11.00;1.20;;;;;;;1.79;94.94;99421.22;5005419;28;20198;-75
2023/12/23 06:36:23;;;;;;;4.90;1.80;;;;;;;1.81;95.40;99413.09;5006490;28;20208;-75
2023/12/23 06:38:51;;;;;;;9.07;1.40;;;;;;;1.86;94.34;99407.78;5005947;28;20220;-75
2023/12/23 06:41:17;;;;;;;9.70;1.40;;;;;;;1.89;94.48;99402.00;4997039;28;20212;-75
2023/12/23 06:43:44;;;;;;;5.80;1.10;;;;;;;1.93;95.24;99416.72;4997826;28;20564;-75
2023/12/23 06:46:11;;;;;;;4.07;1.13;;;;;;;2.00;95.06;99413.69;5005103;28;21062;-75
2023/12/23 06:48:37;;;;;;;9.20;1.27;;;;;;;2.05;95.35;99400.56;4999527;28;20205;-74
2023/12/23 06:51:04;;;;;;;12.87;1.50;;;;;;;2.09;95.49;99401.50;5001740;28;20200;-75
2023/12/23 06:53:30;;;;;;;8.33;1.23;;;;;;;2.16;94.88;99407.06;5002566;28;20253;-74
2023/12/23 06:55:58;;;;;;;13.07;1.50;;;;;;;2.20;95.94;99418.41;5009223;28;20216;-74
2023/12/23 06:58:27;;;;;;;7.87;1.13;;;;;;;2.24;96.44;99414.91;5001149;28;20197;-75
2023/12/23 07:00:54;;;;;;;10.13;1.90;;;;;;;2.27;95.79;99410.94;5002331;28;20216;-73
2023/12/23 07:03:21;;;;;;;6.53;1.30;;;;;;;2.29;96.29;99401.00;5001680;28;20212;-75
2023/12/23 07:05:47;;;;;;;5.50;1.70;;;;;;;2.32;96.65;99403.78;4998646;28;20207;-74
2023/12/23 07:08:13;;;;;;;6.57;1.20;;;;;;;2.37;96.80;99397.66;4998877;28;20197;-75
2023/12/23 07:10:40;;;;;;;6.33;1.60;;;;;;;2.40;96.30;99400.44;4994653;28;20704;-75
2023/12/23 07:13:08;;;;;;;9.50;1.33;;;;;;;2.43;97.21;99401.66;4998949;28;20243;-75
2023/12/23 07:15:34;;;;;;;7.33;0.97;;;;;;;2.43;98.00;99412.88;5002168;28;20205;-75
2023/12/23 07:18:00;;;;;;;4.37;1.27;;;;;;;2.45;97.87;99415.19;5004288;28;20432;-75
2023/12/23 07:20:27;;;;;;;5.07;1.20;;;;;;;2.47;98.03;99402.59;4998816;28;20224;-75
2023/12/23 07:22:54;;;;;;;3.67;1.00;;;;;;;2.48;97.81;99406.75;5006030;28;20205;-75
2023/12/23 07:25:20;;;;;;;8.03;1.63;;;;;;;2.50;97.76;99407.22;4991797;28;20201;-75
2023/12/23 07:27:46;;;;;;;9.50;1.30;;;;;;;2.50;98.17;99399.41;5004085;28;20212;-75
2023/12/23 07:30:15;;;;;;;5.30;1.50;;;;;;;2.54;98.08;99397.75;5003938;28;20224;-75
2023/12/23 07:32:41;;;;;;;6.60;1.87;;;;;;;2.57;98.32;99397.13;4996433;28;20266;-75
2023/12/23 07:35:08;;;;;;;8.57;1.90;;;;;;;2.62;98.10;99395.16;5004371;28;20258;-75
2023/12/23 07:37:34;;;;;;;3.77;1.83;;;;;;;2.64;97.92;99381.84;4997807;28;20299;-75
2023/12/23 07:40:04;;;;;;;4.30;1.43;;;;;;;2.68;97.98;99374.94;4995511;28;20221;-75
2023/12/23 07:42:30;;;;;;;5.63;1.43;;;;;;;2.71;98.02;99369.88;4996708;28;20217;-75
2023/12/23 07:44:57;;;;;;;2.10;1.23;;;;;;;2.73;97.77;99364.38;5000535;28;20203;-75
2023/12/23 07:47:24;;;;;;;11.90;2.03;;;;;;;2.75;98.54;99373.44;4997262;28;20566;-75
2023/12/23 07:49:51;;;;;;;4.33;1.50;;;;;;;2.77;98.77;99370.53;5003299;28;20216;-72
2023/12/23 07:52:17;;;;;;;7.50;1.43;;;;;;;2.78;99.00;99366.84;5003038;28;20196;-72
2023/12/23 07:54:43;;;;;;;5.97;1.60;;;;;;;2.80;99.21;99378.50;4994652;28;20201;-72
2023/12/23 07:57:10;;;;;;;5.23;1.60;;;;;;;2.82;99.74;99373.78;4997901;28;20212;-72
2023/12/23 07:59:36;;;;;;;7.13;1.60;;;;;;;2.84;100.00;99365.63;5003880;28;20218;-72
2023/12/23 08:02:02;;;;;;;4.67;1.73;;;;;;;2.85;100.00;99373.16;4996038;28;20221;-72
2023/12/23 08:04:31;;;;;;;7.17;1.50;;;;;;;2.86;100.00;99379.16;4993783;28;20283;-72
2023/12/23 08:06:57;;;;;;;6.30;2.00;;;;;;;2.86;100.00;99374.69;4997834;28;20564;-71
2023/12/23 08:09:23;;;;;;;8.93;1.30;;;;;;;2.86;100.00;99374.69;4998927;28;20668;-72
2023/12/23 08:11:50;;;;;;;5.40;1.60;;;;;;;2.87;100.00;99381.44;5000862;28;20205;-75
2023/12/23 08:14:16;;;;;;;7.73;1.30;;;;;;;2.86;100.00;99369.47;4992045;28;20565;-73
2023/12/23 08:16:42;;;;;;;5.33;1.73;;;;;;;2.87;100.00;99365.03;4999956;28;20200;-74
2023/12/23 08:19:09;;;;;;;7.33;2.13;;;;;;;2.85;100.00;99373.16;5001699;28;20307;-75
2023/12/23 08:21:36;;;;;;;4.43;1.20;;;;;;;2.85;100.00;99377.59;4994421;28;20641;-75
2023/12/23 08:24:03;;;;;;;7.13;1.90;;;;;;;2.82;100.00;99371.16;5001206;28;20226;-74
2023/12/23 08:26:30;;;;;;;11.40;2.17;;;;;;;2.77;100.00;99373.13;4998546;28;20284;-74
2023/12/23 08:28:56;;;;;;;5.70;2.03;;;;;;;2.78;100.00;99375.44;5000468;28;20691;-75
2023/12/23 08:31:22;;;;;;;5.17;1.63;;;;;;;2.75;100.00;99368.22;4994273;28;20595;-75
2023/12/23 08:33:49;;;;;;;6.10;1.57;;;;;;;2.71;100.00;99362.06;4994647;28;20196;-74
2023/12/23 08:36:15;;;;;;;5.87;1.27;;;;;;;2.71;100.00;99354.25;4996233;28;20197;-75
2023/12/23 08:38:43;;;;;;;9.03;1.60;;;;;;;2.66;100.00;99372.66;4996895;28;20204;-74
2023/12/23 08:41:09;;;;;;;7.90;1.80;;;;;;;2.65;100.00;99371.09;5000025;28;20222;-75
2023/12/23 08:43:35;;;;;;;3.93;1.40;;;;;;;2.62;100.00;99373.53;4994085;28;20200;-75
2023/12/23 08:46:02;;;;;;;4.80;1.50;;;;;;;2.57;100.00;99371.06;4997554;28;20200;-75
2023/12/23 08:48:28;;;;;;;3.97;1.43;;;;;;;2.55;100.00;99383.66;5004902;28;20204;-74
2023/12/23 08:50:55;;;;;;;4.77;1.30;;;;;;;2.53;100.00;99370.91;5003477;28;20196;-74
2023/12/23 08:53:21;;;;;;;3.83;1.20;;;;;;;2.49;100.00;99377.78;5004041;28;20209;-74
2023/12/23 08:55:49;;;;;;;4.17;1.60;;;;;;;2.44;100.00;99364.91;5002317;28;20536;-75
2023/12/23 08:58:15;;;;;;;4.53;1.40;;;;;;;2.41;100.00;99375.16;5003488;28;20209;-75
2023/12/23 09:00:42;;;;;;;4.23;1.10;;;;;;;2.38;100.00;99365.34;5000887;28;20225;-75
2023/12/23 09:03:08;;;;;;;5.80;2.23;;;;;;;2.34;100.00;99364.41;5000595;28;20536;-75
2023/12/23 09:05:35;;;;;;;24.93;12.80;;;;;;;2.31;100.00;99381.41;4999773;28;20221;-75
2023/12/23 09:08:01;;;;;;;18.87;10.10;;;;;;;2.26;100.00;99376.31;4998988;28;20202;-75
2023/12/23 09:10:27;;;;;;;4.40;2.40;;;;;;;2.20;100.00;99381.97;4996329;28;20247;-75
2023/12/23 09:12:55;;;;;;;8.27;1.87;;;;;;;2.16;100.00;99381.78;5003764;28;20211;-74
2023/12/23 09:15:21;;;;;;;5.50;1.90;;;;;;;2.12;100.00;99380.06;4999607;28;20570;-73
2023/12/23 09:17:48;;;;;;;4.57;1.60;;;;;;;2.08;100.00;99379.16;4998683;28;20653;-75
2023/12/23 09:20:14;;;;;;;2.13;1.00;;;;;;;2.04;100.00;99384.19;4999564;28;20244;-74
2023/12/23 09:22:41;;;;;;;3.67;1.40;;;;;;;2.00;100.00;99388.44;5003443;28;20231;-75
2023/12/23 09:25:08;;;;;;;6.60;2.00;;;;;;;1.95;100.00;99385.19;5001120;28;20197;-75
2023/12/23 09:27:34;;;;;;;2.63;1.50;;;;;;;1.92;100.00;99393.59;4998471;28;20205;-75
2023/12/23 09:30:02;;;;;;;4.03;1.30;;;;;;;1.88;100.00;99377.03;4997102;28;20225;-74
2023/12/23 09:32:28;;;;;;;4.60;1.47;;;;;;;1.82;100.00;99378.22;5003948;28;20701;-73
2023/12/23 09:34:55;;;;;;;4.00;1.60;;;;;;;1.79;100.00;99371.00;5005259;28;20627;-75
2023/12/23 09:37:21;;;;;;;5.50;1.60;;;;;;;1.74;100.00;99371.91;5003681;28;20251;-75
2023/12/23 09:39:48;;;;;;;2.10;1.90;;;;;;;1.71;100.00;99361.31;5007123;28;20226;-74
2023/12/23 09:42:14;;;;;;;4.40;1.90;;;;;;;1.68;100.00;99357.47;5000618;28;20213;-74
2023/12/23 09:44:41;;;;;;;6.67;2.07;;;;;;;1.67;100.00;99357.78;5007234;28;20197;-73
2023/12/23 09:47:09;;;;;;;5.73;2.73;;;;;;;1.64;100.00;99351.31;5011472;28;20205;-75
2023/12/23 09:49:36;;;;;;;4.27;2.10;;;;;;;1.62;100.00;99352.69;4999382;28;20708;-74
2023/12/23 09:52:04;;;;;;;2.27;1.00;;;;;;;1.61;100.00;99353.75;5006300;28;20196;-74
2023/12/23 09:54:38;;;;;;;2.73;1.10;;;;;;;1.59;100.00;99355.88;5006602;28;20796;-75
2023/12/23 09:57:04;;;;;;;4.97;1.90;;;;;;;1.59;100.00;99356.66;5000149;28;20435;-75
2023/12/23 09:59:31;;;;;;;7.50;2.50;;;;;;;1.57;100.00;99337.19;5002730;28;20225;-74
2023/12/23 10:01:58;;;;;;;7.47;3.23;;;;;;;1.56;100.00;99339.00;5008436;28;20280;-75
2023/12/23 10:04:26;;;;;;;2.47;1.60;;;;;;;1.54;100.00;99337.78;5014513;28;20201;-74
2023/12/23 10:06:52;;;;;;;3.80;1.70;;;;;;;1.52;100.00;99335.47;4999517;28;20189;-75
2023/12/23 10:09:19;;;;;;;3.87;1.20;;;;;;;1.53;100.00;99328.44;4997045;28;20218;-75
2023/12/23 10:11:45;;;;;;;5.63;1.40;;;;;;;1.52;100.00;99330.25;5006688;28;20352;-75
2023/12/23 10:14:12;;;;;;;3.43;1.40;;;;;;;1.52;100.00;99329.50;5001800;28;20609;-75
2023/12/23 10:16:41;;;;;;;1.30;1.00;;;;;;;1.50;100.00;99329.78;5004584;28;20196;-75
2023/12/23 10:19:08;;;;;;;3.27;1.10;;;;;;;1.49;100.00;99324.88;5002887;28;20239;-75
2023/12/23 10:21:35;;;;;;;2.00;1.10;;;;;;;1.49;100.00;99323.06;5001987;28;20560;-74
2023/12/23 10:24:02;;;;;;;2.80;1.00;;;;;;;1.50;100.00;99329.78;5007249;28;20262;-74
2023/12/23 10:26:30;;;;;;;2.17;1.20;;;;;;;1.52;100.00;99321.69;5003101;28;20431;-75
2023/12/23 10:29:01;;;;;;;2.77;1.20;;;;;;;1.53;100.00;99323.25;5001566;28;20234;-74
2023/12/23 10:31:31;;;;;;;0.60;0.60;;;;;;;1.54;100.00;99316.97;5000196;28;20200;-74
2023/12/23 10:34:03;;;;;;;1.27;0.60;;;;;;;1.55;100.00;99323.69;5001222;28;20193;-75
2023/12/23 10:36:30;;;;;;;1.50;0.60;;;;;;;1.57;100.00;99327.53;4997779;28;20201;-75
2023/12/23 10:39:02;;;;;;;1.70;0.70;;;;;;;1.58;100.00;99326.50;4996745;28;20588;-74
2023/12/23 10:41:38;;;;;;;2.57;0.60;;;;;;;1.59;100.00;99322.81;5001473;28;20552;-74
2023/12/23 10:44:06;;;;;;;1.23;0.80;;;;;;;1.60;100.00;99326.97;5002946;28;20255;-75
2023/12/23 10:46:34;;;;;;;2.90;1.00;;;;;;;1.62;100.00;99322.22;4997922;28;20273;-75
2023/12/23 10:49:01;;;;;;;2.50;0.73;;;;;;;1.64;100.00;99319.31;5005011;28;20314;-74
2023/12/23 10:51:27;;;;;;;0.60;0.60;;;;;;;1.65;100.00;99326.06;5003268;28;20283;-74
2023/12/23 10:53:56;;;;;;;1.97;0.80;;;;;;;1.66;100.00;99320.56;4999858;28;20201;-75
2023/12/23 10:56:26;;;;;;;11.07;6.47;;;;;;;1.67;100.00;99323.94;5001624;28;20215;-74
2023/12/23 10:58:53;;;;;;;4.33;3.93;;;;;;;1.67;100.00;99319.50;4998149;28;20226;-75
2023/12/23 11:01:21;;;;;;;2.13;1.53;;;;;;;1.67;100.00;99321.34;4997809;28;20247;-75
2023/12/23 11:03:51;;;;;;;3.63;2.90;;;;;;;1.67;100.00;99319.50;5002898;28;20213;-74
2023/12/23 11:06:19;;;;;;;2.37;1.90;;;;;;;1.68;100.00;99315.06;5002589;28;20196;-74
2023/12/23 11:08:47;;;;;;;2.03;1.50;;;;;;;1.68;100.00;99317.66;4993677;28;20565;-74
2023/12/23 11:11:14;;;;;;;1.53;1.00;;;;;;;1.67;100.00;99316.88;5000083;28;20208;-75
2023/12/23 11:13:42;;;;;;;2.73;1.30;;;;;;;1.68;100.00;99312.47;5002224;28;20247;-75
2023/12/23 11:16:10;;;;;;;1.30;1.07;;;;;;;1.68;100.00;99320.28;4999400;28;20204;-75
2023/12/23 11:18:37;;;;;;;8.27;4.57;;;;;;;1.65;100.00;99318.25;4997937;28;20283;-73
2023/12/23 11:21:15;;;;;;;10.40;5.77;;;;;;;1.64;100.00;99322.69;4999436;28;20286;-75
2023/12/23 11:23:41;;;;;;;4.27;2.53;;;;;;;1.64;100.00;99316.72;5000041;28;20212;-75
2023/12/23 11:26:41;;;;;;;2.27;1.67;;;;;;;1.64;100.00;99319.31;4995937;28;20196;-75
2023/12/23 11:29:15;;;;;;;2.27;1.50;;;;;;;1.64;100.00;99321.94;4997544;28;20213;-75
2023/12/23 11:31:41;;;;;;;0.80;0.80;;;;;;;1.65;100.00;99319.03;4997676;28;20219;-75
2023/12/23 11:34:15;;;;;;;1.37;0.70;;;;;;;1.64;100.00;99314.13;4999867;28;20197;-75
2023/12/23 11:36:43;;;;;;;2.30;0.77;;;;;;;1.65;100.00;99315.66;4999800;28;20197;-75